Time;durP1;ratioP1;P1;durP2;ratioP2;P2;SDS_P1;SDS_P2;PMS_P1;PMS_P2;Temp;Humidity;BMP_temperature;BMP_pressure;BME280_temperature;BME280_humidity;BME280_pressure;Samples;Min_cycle;Max_cycle;Signal;HPM_P1;HPM_P2
2023/01/07 00:01:17;;;;;;;3.70;2.80;;;11.10;97.70;;;;;;5095766;28;20925;-72
2023/01/07 00:03:45;;;;;;;3.35;2.60;;;11.20;98.30;;;;;;5115272;28;20393;-71
2023/01/07 00:06:14;;;;;;;2.83;2.30;;;11.20;97.10;;;;;;5100816;28;20823;-74
2023/01/07 00:08:42;;;;;;;3.67;2.50;;;11.30;96.20;;;;;;5094200;28;20492;-75
2023/01/07 00:11:10;;;;;;;4.22;1.90;;;11.30;96.80;;;;;;5093741;28;20385;-75
2023/01/07 00:13:36;;;;;;;2.58;2.30;;;11.30;95.80;;;;;;5076643;28;20404;-76
2023/01/07 00:16:08;;;;;;;3.88;2.70;;;11.30;95.60;;;;;;5094228;28;20449;-74
2023/01/07 00:18:34;;;;;;;2.00;1.67;;;11.40;92.90;;;;;;5093380;28;20488;-75
2023/01/07 00:21:02;;;;;;;2.42;2.22;;;11.40;92.10;;;;;;5093380;28;20389;-74
2023/01/07 00:23:29;;;;;;;2.60;1.98;;;11.30;93.30;;;;;;5092885;28;20888;-75
2023/01/07 00:26:05;;;;;;;2.22;2.00;;;11.30;93.60;;;;;;5092561;28;20882;-78
2023/01/07 00:28:33;;;;;;;3.20;1.70;;;11.40;91.80;;;;;;5092274;28;20402;-74
2023/01/07 00:31:23;;;;;;;4.00;3.00;;;11.40;91.00;;;;;;5092801;28;20688;-78
2023/01/07 00:36:26;;;;;;;2.15;1.70;;;11.50;91.20;;;;;;5093307;28;20427;-75
2023/01/07 00:38:55;;;;;;;1.90;1.60;;;11.50;90.20;;;;;;5092142;28;20874;-75
2023/01/07 00:41:21;;;;;;;2.00;1.77;;;11.50;89.30;;;;;;5092145;28;20474;-75
2023/01/07 00:43:46;;;;;;;1.70;1.60;;;11.50;89.40;;;;;;5090775;28;20382;-72
2023/01/07 00:46:14;;;;;;;1.67;1.48;;;11.50;88.50;;;;;;5112905;28;20950;-72
2023/01/07 00:48:40;;;;;;;2.00;1.80;;;11.50;88.60;;;;;;5112568;28;20504;-74
2023/01/07 00:51:07;;;;;;;3.50;2.43;;;11.50;89.50;;;;;;5105521;28;20386;-76
2023/01/07 00:53:32;;;;;;;4.40;1.60;;;11.60;87.70;;;;;;5083905;28;20386;-75
2023/01/07 00:55:58;;;;;;;3.97;2.00;;;11.60;87.00;;;;;;5095821;28;20851;-76
2023/01/07 00:58:25;;;;;;;3.97;2.20;;;11.50;87.70;;;;;;5102688;28;20727;-75
2023/01/07 01:00:55;;;;;;;1.58;1.48;;;11.50;87.90;;;;;;5103321;28;20407;-75
2023/01/07 01:03:21;;;;;;;2.30;2.00;;;11.50;88.70;;;;;;5099446;28;20393;-73
2023/01/07 01:05:46;;;;;;;1.83;1.50;;;11.50;87.80;;;;;;5105470;28;20385;-75
2023/01/07 01:08:12;;;;;;;2.40;1.93;;;11.50;86.90;;;;;;5100110;28;20839;-76
2023/01/07 01:10:37;;;;;;;2.08;1.88;;;11.40;88.60;;;;;;5075538;28;20455;-74
2023/01/07 01:13:03;;;;;;;2.38;2.17;;;11.40;88.50;;;;;;5092823;28;20385;-73
2023/01/07 01:15:29;;;;;;;2.47;2.22;;;11.40;88.30;;;;;;5099121;28;20731;-74
2023/01/07 01:17:54;;;;;;;2.60;2.00;;;11.50;87.70;;;;;;5093266;28;20397;-74
2023/01/07 01:20:20;;;;;;;2.88;2.15;;;11.50;86.80;;;;;;5095035;28;20443;-76
2023/01/07 01:22:46;;;;;;;2.70;2.00;;;11.50;87.10;;;;;;5102189;28;20706;-76
2023/01/07 01:25:12;;;;;;;2.85;2.08;;;11.50;87.50;;;;;;5099680;28;20417;-75
2023/01/07 01:27:38;;;;;;;2.20;1.90;;;11.40;88.20;;;;;;5100603;28;20398;-75
2023/01/07 01:30:05;;;;;;;2.38;1.90;;;11.40;88.00;;;;;;5102235;28;20378;-75
2023/01/07 01:32:31;;;;;;;3.88;2.20;;;11.50;87.40;;;;;;5105418;28;20378;-73
2023/01/07 01:34:57;;;;;;;1.63;1.50;;;11.60;87.30;;;;;;5110239;28;20374;-75
2023/01/07 01:37:23;;;;;;;2.58;1.80;;;11.50;85.90;;;;;;5112386;28;20416;-74
2023/01/07 01:39:49;;;;;;;1.95;1.80;;;11.50;86.20;;;;;;5079887;28;20386;-73
2023/01/07 01:42:18;;;;;;;3.75;2.75;;;11.50;86.50;;;;;;5098492;28;20470;-75
2023/01/07 01:44:54;;;;;;;2.33;1.83;;;11.40;86.30;;;;;;5105045;28;20390;-74
2023/01/07 01:47:40;;;;;;;1.70;1.60;;;11.50;85.80;;;;;;5102931;28;20398;-75
2023/01/07 01:50:26;;;;;;;2.90;1.67;;;11.50;86.30;;;;;;5098758;28;20873;-76
2023/01/07 01:53:05;;;;;;;5.00;2.17;;;11.40;85.60;;;;;;5098683;28;20443;-74
2023/01/07 01:55:35;;;;;;;2.35;1.83;;;11.40;86.80;;;;;;5096305;28;20378;-74
2023/01/07 01:58:05;;;;;;;2.30;2.10;;;11.40;86.40;;;;;;5097466;28;20815;-76
2023/01/07 02:00:32;;;;;;;2.47;1.60;;;11.50;85.80;;;;;;5099438;28;20854;-76
2023/01/07 02:02:58;;;;;;;2.80;2.60;;;11.50;84.20;;;;;;5079283;28;20416;-74
2023/01/07 02:05:28;;;;;;;2.30;1.27;;;11.40;85.60;;;;;;5097284;28;20377;-76
2023/01/07 02:07:54;;;;;;;3.10;1.10;;;11.50;84.20;;;;;;5096891;28;20394;-75
2023/01/07 02:10:22;;;;;;;2.10;1.48;;;11.40;84.50;;;;;;5096862;28;20389;-73
2023/01/07 02:13:25;;;;;;;2.50;1.95;;;11.40;85.20;;;;;;5097307;28;20401;-73
2023/01/07 02:16:34;;;;;;;3.47;2.10;;;11.50;84.00;;;;;;5098467;28;20401;-76
2023/01/07 02:19:24;;;;;;;1.48;1.38;;;11.50;84.40;;;;;;5099702;28;20432;-75
2023/01/07 02:22:46;;;;;;;1.70;1.60;;;11.50;83.70;;;;;;5104401;28;20378;-72
2023/01/07 02:25:26;;;;;;;2.08;1.88;;;11.50;83.80;;;;;;5082917;28;20436;-74
2023/01/07 02:28:10;;;;;;;2.30;1.50;;;11.50;83.10;;;;;;5095678;28;20426;-74
2023/01/07 02:31:26;;;;;;;2.20;2.00;;;11.50;82.60;;;;;;5108919;28;20378;-74
2023/01/07 02:34:05;;;;;;;1.92;1.50;;;11.50;83.70;;;;;;5022975;28;20397;-75
2023/01/07 02:36:39;;;;;;;2.10;1.60;;;11.50;83.30;;;;;;5031326;28;20415;-74
2023/01/07 02:39:17;;;;;;;1.80;1.65;;;11.50;82.80;;;;;;5068164;28;20378;-75
2023/01/07 02:42:18;;;;;;;3.80;2.10;;;11.50;83.80;;;;;;5104776;28;20975;-74
2023/01/07 02:45:11;;;;;;;2.40;2.20;;;11.50;83.30;;;;;;5110742;28;20374;-75
2023/01/07 02:47:43;;;;;;;2.20;2.00;;;11.50;83.20;;;;;;5093932;28;20402;-76
2023/01/07 02:50:09;;;;;;;1.80;1.70;;;11.40;84.00;;;;;;5096033;28;20912;-76
2023/01/07 02:52:35;;;;;;;2.27;1.60;;;11.40;84.00;;;;;;5095640;28;20382;-74
2023/01/07 02:55:33;;;;;;;2.50;2.20;;;11.50;82.90;;;;;;5094326;28;20819;-74
2023/01/07 02:58:07;;;;;;;2.20;1.70;;;11.50;84.00;;;;;;5093740;28;20390;-76
2023/01/07 03:00:52;;;;;;;3.25;1.83;;;11.40;84.50;;;;;;5093541;28;20449;-73
2023/01/07 03:03:49;;;;;;;3.43;1.90;;;11.40;85.30;;;;;;5094404;28;20462;-76
2023/01/07 03:06:33;;;;;;;2.30;2.10;;;11.40;85.50;;;;;;5094977;28;20390;-74
2023/01/07 03:09:25;;;;;;;2.00;1.80;;;11.40;85.40;;;;;;5093962;28;20386;-75
2023/01/07 03:12:20;;;;;;;2.10;1.80;;;11.40;84.80;;;;;;5094721;28;20486;-75
2023/01/07 03:15:37;;;;;;;1.80;1.70;;;11.30;84.70;;;;;;5075471;28;20386;-76
2023/01/07 03:18:11;;;;;;;1.98;1.88;;;11.30;85.00;;;;;;5048178;28;20460;-75
2023/01/07 03:20:39;;;;;;;2.50;2.30;;;11.30;85.10;;;;;;5075234;28;20390;-72
2023/01/07 03:23:08;;;;;;;2.38;2.17;;;11.30;85.20;;;;;;5092650;28;20436;-72
2023/01/07 03:25:39;;;;;;;4.00;1.60;;;11.30;85.00;;;;;;5092708;28;20397;-72
2023/01/07 03:28:06;;;;;;;2.70;2.30;;;11.20;84.80;;;;;;5092344;28;20420;-71
2023/01/07 03:30:32;;;;;;;3.58;2.90;;;11.20;84.60;;;;;;5092719;28;20504;-73
2023/01/07 03:33:17;;;;;;;3.70;3.30;;;11.20;84.90;;;;;;5092313;28;20457;-73
2023/01/07 03:35:46;;;;;;;4.15;2.40;;;11.20;85.40;;;;;;5092929;28;20461;-73
2023/01/07 03:38:13;;;;;;;2.77;2.57;;;11.10;84.60;;;;;;5074750;28;20398;-72
2023/01/07 03:40:39;;;;;;;2.90;2.70;;;10.90;86.70;;;;;;5093012;28;20400;-72
2023/01/07 03:43:14;;;;;;;5.20;3.35;;;10.90;87.90;;;;;;5093253;28;20382;-72
2023/01/07 03:45:41;;;;;;;3.20;2.90;;;10.80;88.70;;;;;;5093232;28;20752;-73
2023/01/07 03:48:06;;;;;;;3.40;3.10;;;10.70;90.80;;;;;;5093671;28;20398;-73
2023/01/07 03:50:32;;;;;;;3.43;2.73;;;10.60;93.50;;;;;;5094708;28;20751;-73
2023/01/07 03:52:58;;;;;;;3.70;2.47;;;10.50;93.20;;;;;;5079783;28;20385;-72
2023/01/07 03:55:23;;;;;;;4.57;3.47;;;10.50;94.10;;;;;;5095117;28;20559;-71
2023/01/07 03:57:49;;;;;;;3.60;2.88;;;10.40;96.50;;;;;;5099735;28;20546;-73
2023/01/07 04:00:15;;;;;;;3.30;2.80;;;10.30;97.20;;;;;;5098366;28;20384;-74
2023/01/07 04:02:41;;;;;;;4.70;2.60;;;10.30;98.50;;;;;;5094540;28;20396;-73
2023/01/07 04:05:08;;;;;;;6.07;3.10;;;10.30;97.90;;;;;;5100957;28;20386;-73
2023/01/07 04:07:34;;;;;;;3.75;2.70;;;10.20;99.30;;;;;;5105521;28;20457;-73
2023/01/07 04:09:59;;;;;;;4.90;4.07;;;10.20;99.80;;;;;;5087547;28;20471;-72
2023/01/07 04:12:25;;;;;;;5.43;3.53;;;10.20;99.90;;;;;;5101124;28;20390;-72
2023/01/07 04:14:51;;;;;;;3.67;3.30;;;10.20;99.90;;;;;;5098422;28;20401;-73
2023/01/07 04:17:16;;;;;;;6.22;3.10;;;10.20;99.90;;;;;;5099535;28;20436;-73
2023/01/07 04:19:42;;;;;;;3.20;2.50;;;10.20;99.90;;;;;;5097942;28;20386;-73
2023/01/07 04:22:10;;;;;;;2.70;2.50;;;10.10;99.90;;;;;;5097083;28;20392;-73
2023/01/07 04:24:36;;;;;;;4.07;2.72;;;10.10;99.90;;;;;;5078187;28;20397;-73
2023/01/07 04:27:01;;;;;;;3.00;2.70;;;10.10;99.90;;;;;;5093327;28;20886;-72
2023/01/07 04:29:27;;;;;;;3.45;3.15;;;10.00;99.90;;;;;;5091572;28;20390;-74
2023/01/07 04:31:53;;;;;;;3.10;2.53;;;10.20;99.90;;;;;;5091060;28;20389;-73
2023/01/07 04:34:19;;;;;;;3.78;3.30;;;10.10;99.30;;;;;;5091368;28;20712;-73
2023/01/07 04:36:44;;;;;;;4.20;3.50;;;10.00;99.90;;;;;;5091622;28;20420;-73
2023/01/07 04:39:11;;;;;;;4.20;2.63;;;10.00;99.90;;;;;;5091022;28;20784;-72
2023/01/07 04:41:37;;;;;;;3.90;3.00;;;10.00;99.90;;;;;;5091351;28;20378;-73
2023/01/07 04:44:03;;;;;;;3.50;3.20;;;10.00;99.90;;;;;;5091350;28;20424;-72
2023/01/07 04:46:28;;;;;;;6.20;4.40;;;9.90;99.90;;;;;;5091158;28;20378;-72
2023/01/07 04:48:54;;;;;;;2.93;2.70;;;9.90;99.90;;;;;;5091004;28;20417;-72
2023/01/07 04:51:19;;;;;;;3.50;3.20;;;9.90;99.90;;;;;;5091224;28;20417;-73
2023/01/07 04:53:46;;;;;;;3.53;2.93;;;9.90;99.90;;;;;;5091224;28;20459;-72
2023/01/07 04:56:11;;;;;;;7.72;4.13;;;10.00;99.90;;;;;;5092291;28;20381;-73
2023/01/07 04:58:37;;;;;;;4.95;3.80;;;9.90;99.90;;;;;;5092532;28;20384;-73
2023/01/07 05:01:03;;;;;;;4.10;3.40;;;9.90;99.90;;;;;;5090797;28;20378;-73
2023/01/07 05:03:29;;;;;;;3.13;2.92;;;9.90;99.90;;;;;;5091620;28;20473;-73
2023/01/07 05:05:55;;;;;;;7.47;3.38;;;9.80;99.90;;;;;;5079666;28;20416;-73
2023/01/07 05:08:21;;;;;;;3.90;3.50;;;9.90;99.90;;;;;;5106439;28;20405;-72
2023/01/07 05:10:49;;;;;;;5.78;3.58;;;9.90;99.90;;;;;;5100856;28;20382;-72
2023/01/07 05:13:17;;;;;;;6.17;4.10;;;9.90;99.90;;;;;;5098567;28;20794;-72
2023/01/07 05:15:43;;;;;;;4.90;3.60;;;9.90;99.90;;;;;;5095096;28;20382;-73
2023/01/07 05:18:08;;;;;;;4.45;3.70;;;9.80;99.90;;;;;;5094550;28;20743;-72
2023/01/07 05:20:34;;;;;;;6.63;4.45;;;9.80;99.90;;;;;;5094931;28;20406;-72
2023/01/07 05:22:59;;;;;;;5.10;3.33;;;9.80;99.90;;;;;;5094287;28;20382;-72
2023/01/07 05:25:25;;;;;;;4.32;3.67;;;9.70;99.90;;;;;;5094568;28;20373;-74
2023/01/07 05:27:51;;;;;;;3.60;3.30;;;9.70;99.90;;;;;;5094628;28;20449;-73
2023/01/07 05:30:16;;;;;;;5.00;4.20;;;9.70;99.90;;;;;;5094650;28;20551;-74
2023/01/07 05:32:42;;;;;;;5.67;3.50;;;9.60;99.90;;;;;;5059484;28;20382;-73
2023/01/07 05:35:08;;;;;;;3.53;3.23;;;9.60;99.90;;;;;;5094391;28;20386;-73
2023/01/07 05:37:33;;;;;;;3.70;3.40;;;9.60;99.90;;;;;;5094199;28;20440;-73
2023/01/07 05:39:59;;;;;;;3.57;3.23;;;9.60;99.90;;;;;;5094017;28;20423;-73
2023/01/07 05:42:24;;;;;;;3.40;3.10;;;9.60;99.90;;;;;;5093933;28;20404;-74
2023/01/07 05:44:50;;;;;;;3.80;3.50;;;9.60;99.90;;;;;;5094180;28;20407;-72
2023/01/07 05:47:16;;;;;;;4.10;3.53;;;9.60;99.90;;;;;;5093926;28;20882;-72
2023/01/07 05:49:41;;;;;;;7.53;4.10;;;9.60;99.90;;;;;;5094021;28;20385;-72
2023/01/07 05:52:07;;;;;;;4.70;3.70;;;9.50;99.90;;;;;;5093909;28;20397;-73
2023/01/07 05:54:32;;;;;;;5.33;3.70;;;9.60;99.90;;;;;;5093776;28;20386;-72
2023/01/07 05:56:58;;;;;;;4.13;3.63;;;9.60;99.90;;;;;;5093877;28;20397;-72
2023/01/07 05:59:23;;;;;;;4.70;3.30;;;9.70;99.90;;;;;;5093603;28;20897;-73
2023/01/07 06:01:49;;;;;;;6.60;3.63;;;9.70;99.90;;;;;;5093443;28;20805;-72
2023/01/07 06:04:14;;;;;;;5.30;3.30;;;9.70;99.90;;;;;;5094324;28;20386;-73
2023/01/07 06:06:40;;;;;;;3.57;3.27;;;9.70;99.90;;;;;;5093739;28;20390;-73
2023/01/07 06:09:06;;;;;;;5.63;3.80;;;9.70;99.90;;;;;;5093679;28;20378;-73
2023/01/07 06:11:31;;;;;;;5.13;3.80;;;9.80;99.90;;;;;;5093625;28;20432;-72
2023/01/07 06:13:57;;;;;;;3.70;3.10;;;9.80;99.90;;;;;;5093626;28;20381;-72
2023/01/07 06:16:22;;;;;;;3.80;3.40;;;9.90;99.90;;;;;;5094308;28;20442;-72
2023/01/07 06:18:48;;;;;;;5.10;3.30;;;9.90;99.90;;;;;;5092609;28;20432;-71
2023/01/07 06:21:15;;;;;;;6.97;3.10;;;10.00;99.90;;;;;;5092281;28;20378;-71
2023/01/07 06:23:40;;;;;;;4.50;2.90;;;10.00;99.90;;;;;;5092681;28;20723;-72
2023/01/07 06:26:06;;;;;;;4.10;3.20;;;10.00;99.90;;;;;;5092461;28;20378;-73
2023/01/07 06:28:31;;;;;;;3.65;3.25;;;10.00;99.90;;;;;;5092602;28;20408;-73
2023/01/07 06:30:57;;;;;;;3.38;2.75;;;10.10;99.90;;;;;;5093379;28;20866;-73
2023/01/07 06:33:23;;;;;;;3.20;2.90;;;10.10;99.50;;;;;;5094587;28;20383;-72
2023/01/07 06:35:48;;;;;;;5.07;3.10;;;10.20;97.80;;;;;;5094346;28;20385;-71
2023/01/07 06:38:14;;;;;;;3.75;3.10;;;10.20;97.80;;;;;;5093019;28;20401;-74
2023/01/07 06:40:40;;;;;;;6.63;3.10;;;10.30;97.30;;;;;;5093307;28;20475;-73
2023/01/07 06:43:05;;;;;;;3.00;2.80;;;10.30;96.90;;;;;;5093797;28;20387;-72
2023/01/07 06:45:31;;;;;;;3.40;3.10;;;10.30;95.60;;;;;;5097970;28;20397;-71
2023/01/07 06:47:57;;;;;;;3.58;2.40;;;10.40;94.80;;;;;;5074468;28;20410;-73
2023/01/07 06:50:23;;;;;;;4.38;2.60;;;10.50;91.40;;;;;;5100337;28;20419;-72
2023/01/07 06:52:48;;;;;;;4.90;2.50;;;10.70;86.90;;;;;;5112012;28;20871;-71
2023/01/07 06:55:14;;;;;;;2.60;2.40;;;10.70;83.70;;;;;;5108625;28;20453;-71
2023/01/07 06:57:40;;;;;;;5.50;3.17;;;10.80;81.50;;;;;;5091789;28;20456;-72
2023/01/07 07:00:06;;;;;;;5.40;3.20;;;10.90;79.60;;;;;;5091809;28;20385;-72
2023/01/07 07:02:31;;;;;;;4.60;2.70;;;10.90;80.10;;;;;;5091296;28;20434;-73
2023/01/07 07:04:57;;;;;;;4.22;3.25;;;10.90;78.50;;;;;;5091632;28;20378;-72
2023/01/07 07:07:23;;;;;;;4.10;3.10;;;11.10;76.60;;;;;;5091353;28;20458;-74
2023/01/07 07:09:51;;;;;;;5.45;3.70;;;11.00;76.60;;;;;;5091571;28;20378;-73
2023/01/07 07:12:18;;;;;;;3.17;2.92;;;11.10;75.90;;;;;;5091055;28;20738;-75
2023/01/07 07:14:43;;;;;;;4.00;3.13;;;11.20;73.60;;;;;;5073374;28;20386;-73
2023/01/07 07:17:09;;;;;;;5.30;3.73;;;11.20;73.40;;;;;;5091334;28;20388;-73
2023/01/07 07:19:34;;;;;;;3.40;2.90;;;11.30;72.40;;;;;;5030268;28;1744454;-72
2023/01/07 07:22:00;;;;;;;4.78;3.60;;;11.20;72.40;;;;;;5092211;28;20398;-72
2023/01/07 07:24:25;;;;;;;5.10;3.72;;;11.20;73.00;;;;;;5092182;28;20385;-75
2023/01/07 07:26:51;;;;;;;3.50;3.20;;;11.20;72.00;;;;;;5074373;28;20405;-75
2023/01/07 07:29:17;;;;;;;5.90;3.28;;;11.20;72.10;;;;;;5093470;28;20808;-74
2023/01/07 07:31:42;;;;;;;6.27;3.30;;;11.10;73.60;;;;;;5092403;28;20879;-72
2023/01/07 07:34:09;;;;;;;4.60;3.07;;;11.10;74.60;;;;;;5092615;28;20378;-73
2023/01/07 07:36:35;;;;;;;5.07;3.05;;;11.10;73.50;;;;;;5094782;28;20374;-73
2023/01/07 07:39:00;;;;;;;6.10;3.23;;;11.10;74.50;;;;;;5097469;28;20586;-73
2023/01/07 07:41:26;;;;;;;4.20;2.80;;;11.00;75.40;;;;;;5104816;28;20421;-74
2023/01/07 07:43:51;;;;;;;3.43;2.77;;;11.00;76.50;;;;;;5097024;28;20867;-73
2023/01/07 07:46:17;;;;;;;3.97;2.70;;;11.00;77.80;;;;;;5094424;28;20980;-74
2023/01/07 07:48:42;;;;;;;3.42;2.67;;;11.00;76.70;;;;;;5096998;28;20482;-73
2023/01/07 07:51:08;;;;;;;5.07;3.20;;;11.00;77.30;;;;;;5095781;28;20488;-73
2023/01/07 07:53:34;;;;;;;4.80;3.10;;;11.10;77.10;;;;;;5087917;28;20401;-74
2023/01/07 07:55:59;;;;;;;4.63;2.43;;;11.10;76.10;;;;;;5092187;28;20374;-72
2023/01/07 07:58:25;;;;;;;3.60;3.20;;;11.10;74.30;;;;;;5087964;28;20395;-75
2023/01/07 08:00:50;;;;;;;3.70;2.13;;;11.20;73.90;;;;;;5091183;28;20389;-73
2023/01/07 08:03:16;;;;;;;6.60;2.70;;;11.30;71.70;;;;;;5091653;28;20374;-73
2023/01/07 08:05:42;;;;;;;4.50;2.80;;;11.30;70.40;;;;;;5091727;28;20870;-72
2023/01/07 08:08:10;;;;;;;4.20;3.50;;;11.20;70.30;;;;;;5091676;28;20881;-73
2023/01/07 08:10:36;;;;;;;4.90;2.67;;;11.20;71.00;;;;;;5092113;28;20412;-72
2023/01/07 08:13:02;;;;;;;2.10;1.83;;;11.30;66.70;;;;;;5092250;28;20913;-73
2023/01/07 08:15:28;;;;;;;3.05;2.58;;;11.40;64.50;;;;;;5073686;28;20382;-71
2023/01/07 08:18:02;;;;;;;4.95;2.15;;;11.30;64.70;;;;;;5091474;28;20405;-72
2023/01/07 08:20:28;;;;;;;2.78;2.30;;;11.30;64.50;;;;;;5086342;28;20438;-73
2023/01/07 08:22:53;;;;;;;2.50;2.30;;;11.50;62.10;;;;;;5082547;28;20895;-72
2023/01/07 08:25:19;;;;;;;2.83;2.20;;;11.50;60.50;;;;;;5071796;28;20861;-73
2023/01/07 08:27:45;;;;;;;3.57;2.27;;;11.40;61.80;;;;;;5086944;28;20883;-74
2023/01/07 08:30:11;;;;;;;2.80;2.30;;;11.30;62.50;;;;;;5091648;28;20378;-73
2023/01/07 08:32:36;;;;;;;5.72;2.95;;;11.30;63.20;;;;;;5095458;28;20384;-73
2023/01/07 08:35:03;;;;;;;2.97;2.67;;;11.40;62.80;;;;;;5101195;28;20473;-72
2023/01/07 08:37:29;;;;;;;7.30;3.05;;;11.30;63.00;;;;;;5098767;28;20394;-73
2023/01/07 08:39:55;;;;;;;3.28;2.70;;;11.40;63.70;;;;;;5102653;28;20452;-72
2023/01/07 08:42:20;;;;;;;4.93;4.10;;;11.40;65.20;;;;;;5105500;28;20489;-73
2023/01/07 08:44:46;;;;;;;2.70;2.50;;;11.50;64.50;;;;;;5101625;28;20441;-72
2023/01/07 08:47:11;;;;;;;3.33;3.00;;;11.40;64.40;;;;;;5099906;28;20721;-74
2023/01/07 08:49:37;;;;;;;5.90;3.60;;;11.40;64.20;;;;;;5091107;28;20406;-73
2023/01/07 08:52:02;;;;;;;4.00;2.88;;;11.40;65.60;;;;;;5091338;28;20390;-75
2023/01/07 08:54:28;;;;;;;4.30;3.30;;;11.40;67.30;;;;;;5089749;28;20451;-75
2023/01/07 08:56:54;;;;;;;4.38;2.80;;;11.50;65.20;;;;;;5091079;28;20547;-74
2023/01/07 08:59:19;;;;;;;4.05;3.00;;;11.50;63.30;;;;;;5095792;28;20378;-74
2023/01/07 09:01:45;;;;;;;4.05;2.70;;;11.50;63.70;;;;;;5096035;28;20405;-74
2023/01/07 09:04:10;;;;;;;4.20;2.90;;;11.50;64.90;;;;;;5094263;28;20744;-73
2023/01/07 09:06:36;;;;;;;4.00;2.40;;;11.50;63.60;;;;;;5091787;28;20468;-73
2023/01/07 09:09:02;;;;;;;3.30;3.00;;;11.50;63.60;;;;;;5097871;28;21183;-74
2023/01/07 09:11:27;;;;;;;2.90;2.67;;;11.50;64.30;;;;;;5090467;28;20382;-73
2023/01/07 09:13:53;;;;;;;6.43;2.37;;;11.60;63.50;;;;;;5087690;28;20404;-72
2023/01/07 09:16:19;;;;;;;4.33;3.10;;;11.50;64.40;;;;;;5089360;28;20449;-72
2023/01/07 09:18:44;;;;;;;2.87;2.60;;;11.50;65.00;;;;;;5089906;28;20420;-74
2023/01/07 09:21:10;;;;;;;4.40;3.10;;;11.50;64.30;;;;;;5089720;28;20793;-74
2023/01/07 09:23:35;;;;;;;6.68;4.00;;;11.50;65.00;;;;;;5089490;28;20390;-72
2023/01/07 09:26:02;;;;;;;3.80;3.40;;;11.70;63.90;;;;;;5090004;28;20828;-72
2023/01/07 09:28:27;;;;;;;5.78;2.75;;;11.70;62.30;;;;;;5090244;28;20409;-73
2023/01/07 09:30:53;;;;;;;4.57;3.73;;;11.70;61.50;;;;;;5093978;28;20770;-73
2023/01/07 09:33:19;;;;;;;4.23;3.07;;;11.80;62.70;;;;;;5093303;28;20485;-72
2023/01/07 09:35:44;;;;;;;6.87;3.30;;;11.90;60.90;;;;;;5090438;28;20475;-73
2023/01/07 09:38:10;;;;;;;3.63;3.08;;;11.90;61.70;;;;;;5094369;28;20520;-74
2023/01/07 09:40:39;;;;;;;4.50;2.65;;;12.10;58.40;;;;;;5096691;28;20476;-73
2023/01/07 09:43:24;;;;;;;4.32;2.78;;;12.10;58.70;;;;;;5085905;28;20392;-74
2023/01/07 09:45:55;;;;;;;5.00;3.50;;;12.30;56.30;;;;;;5096963;28;20412;-73
2023/01/07 09:48:45;;;;;;;4.82;3.40;;;12.30;56.30;;;;;;5098632;28;20409;-73
2023/01/07 09:51:35;;;;;;;4.70;3.33;;;12.20;56.80;;;;;;5089539;28;20382;-73
2023/01/07 09:54:04;;;;;;;5.10;3.30;;;12.20;54.90;;;;;;5089349;28;20378;-74
2023/01/07 09:56:34;;;;;;;5.33;3.10;;;12.00;57.50;;;;;;5090770;28;20871;-72
2023/01/07 09:59:02;;;;;;;5.28;3.67;;;11.90;58.20;;;;;;5074468;28;20403;-71
2023/01/07 10:01:38;;;;;;;5.38;3.42;;;11.90;59.30;;;;;;5073335;28;20483;-73
2023/01/07 10:04:31;;;;;;;5.60;3.90;;;11.90;58.10;;;;;;5074179;28;20398;-75
2023/01/07 10:07:05;;;;;;;3.90;2.90;;;11.90;59.10;;;;;;5089919;28;20394;-73
2023/01/07 10:09:40;;;;;;;5.30;4.20;;;12.00;57.30;;;;;;5093816;28;20378;-75
2023/01/07 10:12:29;;;;;;;3.35;2.70;;;12.00;57.60;;;;;;5099883;28;20402;-74
2023/01/07 10:15:14;;;;;;;6.53;3.22;;;12.10;57.40;;;;;;5088841;28;20392;-73
2023/01/07 10:18:05;;;;;;;4.50;2.70;;;12.10;57.90;;;;;;5075942;28;20395;-73
2023/01/07 10:20:30;;;;;;;4.60;2.95;;;12.10;56.60;;;;;;5074076;28;20478;-73
2023/01/07 10:23:03;;;;;;;3.83;2.30;;;12.20;57.50;;;;;;5088933;28;20485;-72
2023/01/07 10:25:44;;;;;;;2.67;2.47;;;12.20;55.40;;;;;;5092253;28;20389;-73
2023/01/07 10:28:18;;;;;;;4.40;3.30;;;12.40;52.20;;;;;;5085521;28;20527;-73
2023/01/07 10:30:46;;;;;;;5.70;3.20;;;12.40;52.20;;;;;;5091677;28;20410;-71
2023/01/07 10:33:24;;;;;;;3.35;3.00;;;12.40;51.30;;;;;;5088640;28;20515;-74
2023/01/07 10:35:59;;;;;;;5.13;3.80;;;12.50;50.10;;;;;;5092510;28;20459;-73
2023/01/07 10:38:27;;;;;;;3.43;2.80;;;12.40;50.10;;;;;;5092308;28;20408;-73
2023/01/07 10:40:57;;;;;;;7.63;3.30;;;12.40;50.10;;;;;;5091872;28;20406;-73
2023/01/07 10:43:59;;;;;;;5.90;3.70;;;12.50;50.90;;;;;;5091294;28;20398;-73
2023/01/07 10:46:48;;;;;;;5.63;3.85;;;12.60;50.20;;;;;;5074111;28;20425;-73
2023/01/07 10:49:23;;;;;;;4.75;3.65;;;12.60;49.20;;;;;;5092125;28;20382;-73
2023/01/07 10:51:53;;;;;;;6.03;4.00;;;12.70;48.30;;;;;;5092150;28;20476;-73
2023/01/07 10:54:39;;;;;;;4.20;3.20;;;12.80;48.30;;;;;;5084876;28;20390;-76
2023/01/07 10:57:10;;;;;;;4.20;3.33;;;12.80;46.60;;;;;;5074339;28;20394;-77
2023/01/07 10:59:37;;;;;;;4.25;3.40;;;12.80;45.70;;;;;;5092822;28;20413;-72
2023/01/07 11:02:03;;;;;;;4.50;3.72;;;12.80;46.60;;;;;;5092779;28;20465;-71
2023/01/07 11:04:29;;;;;;;4.30;3.90;;;12.80;45.30;;;;;;5093243;28;20421;-73
2023/01/07 11:07:21;;;;;;;6.53;3.40;;;12.80;43.90;;;;;;5093003;28;20789;-73
2023/01/07 11:09:47;;;;;;;3.80;3.40;;;12.80;43.20;;;;;;5088924;28;20437;-74
2023/01/07 11:12:39;;;;;;;4.75;3.85;;;12.80;43.70;;;;;;5073601;28;20394;-73
2023/01/07 11:15:17;;;;;;;5.70;4.30;;;12.70;44.90;;;;;;5078884;28;20401;-73
2023/01/07 11:17:53;;;;;;;5.18;4.50;;;12.80;44.80;;;;;;5085131;28;20398;-74
2023/01/07 11:20:42;;;;;;;6.00;4.07;;;12.90;43.80;;;;;;5093641;28;20385;-73
2023/01/07 11:23:30;;;;;;;6.53;4.28;;;13.00;41.50;;;;;;5093482;28;20381;-72
2023/01/07 11:26:04;;;;;;;5.13;3.72;;;13.10;42.40;;;;;;5075087;28;20535;-75
2023/01/07 11:28:31;;;;;;;6.78;4.25;;;13.20;40.20;;;;;;5093562;28;20402;-74
2023/01/07 11:30:59;;;;;;;7.78;4.22;;;13.20;39.50;;;;;;5093328;28;20451;-73
2023/01/07 11:33:45;;;;;;;4.15;3.75;;;13.20;40.70;;;;;;5093500;28;20378;-73
2023/01/07 11:36:11;;;;;;;4.43;3.30;;;13.30;39.30;;;;;;5079082;28;20386;-75
2023/01/07 11:38:38;;;;;;;7.60;3.83;;;13.30;37.80;;;;;;5099006;28;20661;-73
2023/01/07 11:41:06;;;;;;;4.07;3.67;;;13.40;37.10;;;;;;5079486;28;20426;-75
2023/01/07 11:43:37;;;;;;;4.63;3.67;;;13.40;38.10;;;;;;5097455;28;20875;-75
2023/01/07 11:46:05;;;;;;;5.63;3.58;;;13.60;36.20;;;;;;5097689;28;20382;-74
2023/01/07 11:48:37;;;;;;;4.43;3.88;;;13.60;36.80;;;;;;5092626;28;20427;-73
2023/01/07 11:51:04;;;;;;;7.65;4.25;;;13.60;35.50;;;;;;5091986;28;20407;-74
2023/01/07 11:53:43;;;;;;;6.55;4.00;;;13.60;36.50;;;;;;5094191;28;20382;-74
2023/01/07 11:56:20;;;;;;;5.55;3.90;;;13.50;37.30;;;;;;5093867;28;20739;-75
2023/01/07 11:58:51;;;;;;;4.13;3.70;;;13.70;36.60;;;;;;5092752;28;20390;-76
2023/01/07 12:01:20;;;;;;;5.95;4.00;;;13.80;35.90;;;;;;5093278;28;20414;-73
2023/01/07 12:03:55;;;;;;;4.80;3.60;;;13.80;35.40;;;;;;5095353;28;20381;-74
2023/01/07 12:06:26;;;;;;;8.48;3.97;;;13.80;34.90;;;;;;5076788;28;20959;-73
2023/01/07 12:09:03;;;;;;;4.00;3.42;;;13.80;35.80;;;;;;5102680;28;20393;-73
2023/01/07 12:11:32;;;;;;;4.70;3.03;;;13.70;34.90;;;;;;5087499;28;20382;-75
2023/01/07 12:14:05;;;;;;;4.70;3.40;;;13.70;34.90;;;;;;5097577;28;20870;-73
2023/01/07 12:16:31;;;;;;;3.90;3.30;;;13.80;35.00;;;;;;5092894;28;20382;-75
2023/01/07 12:19:18;;;;;;;4.07;2.70;;;13.70;34.90;;;;;;5092268;28;20725;-73
2023/01/07 12:21:50;;;;;;;4.78;2.50;;;13.60;33.40;;;;;;5091573;28;20369;-72
2023/01/07 12:24:34;;;;;;;3.60;2.50;;;13.60;33.20;;;;;;5091963;28;20382;-73
2023/01/07 12:27:02;;;;;;;2.90;2.60;;;13.50;33.90;;;;;;5092123;28;20378;-74
2023/01/07 12:29:56;;;;;;;3.72;2.40;;;13.40;33.20;;;;;;5091917;28;20381;-72
2023/01/07 12:32:46;;;;;;;4.97;2.22;;;13.30;32.00;;;;;;5096100;28;20389;-74
2023/01/07 12:35:17;;;;;;;2.95;1.98;;;13.20;32.00;;;;;;5095821;28;20796;-74
2023/01/07 12:38:08;;;;;;;2.58;1.73;;;13.20;31.90;;;;;;5096612;28;20420;-73
2023/01/07 12:40:46;;;;;;;1.60;1.40;;;13.20;31.60;;;;;;5099966;28;20941;-74
2023/01/07 12:43:12;;;;;;;2.05;1.40;;;13.10;31.40;;;;;;5103319;28;20788;-77
2023/01/07 12:45:52;;;;;;;1.90;1.67;;;13.10;30.40;;;;;;5104856;28;20389;-73
2023/01/07 12:48:38;;;;;;;2.15;1.95;;;13.10;30.50;;;;;;5091404;28;20492;-72
2023/01/07 12:51:14;;;;;;;2.80;1.80;;;13.10;31.40;;;;;;5090820;28;20394;-73
2023/01/07 12:53:46;;;;;;;4.20;1.90;;;13.10;30.90;;;;;;5091548;28;20855;-73
2023/01/07 12:56:24;;;;;;;3.00;1.63;;;13.00;30.90;;;;;;5091893;28;20374;-74
2023/01/07 12:58:58;;;;;;;2.85;2.30;;;12.90;32.10;;;;;;5091855;28;20380;-74
2023/01/07 13:01:29;;;;;;;2.80;2.30;;;12.90;33.10;;;;;;5091421;28;20393;-73
2023/01/07 13:04:30;;;;;;;3.78;2.00;;;12.90;32.60;;;;;;5091826;28;20534;-73
2023/01/07 13:07:27;;;;;;;2.25;2.05;;;12.90;32.40;;;;;;5091962;28;20382;-73
2023/01/07 13:09:58;;;;;;;2.92;2.60;;;12.90;33.00;;;;;;5091818;28;20416;-74